sensor_id;sensor_type;location;lat;lon;timestamp;P1;durP1;ratioP1;P2;durP2;ratioP2
74707;SDS011;63360;50.104;8.074;2024-01-10T00:02:19;12.15;;;3.67;;
74707;SDS011;63360;50.104;8.074;2024-01-10T00:04:46;14.05;;;3.92;;
74707;SDS011;63360;50.104;8.074;2024-01-10T00:07:12;15.15;;;3.80;;
74707;SDS011;63360;50.104;8.074;2024-01-10T00:09:39;14.88;;;3.70;;
74707;SDS011;63360;50.104;8.074;2024-01-10T00:12:05;11.97;;;3.43;;
74707;SDS011;63360;50.104;8.074;2024-01-10T00:14:32;11.57;;;3.97;;
74707;SDS011;63360;50.104;8.074;2024-01-10T00:16:58;11.38;;;3.88;;
74707;SDS011;63360;50.104;8.074;2024-01-10T00:19:25;15.00;;;4.07;;
74707;SDS011;63360;50.104;8.074;2024-01-10T00:21:51;15.50;;;4.15;;
74707;SDS011;63360;50.104;8.074;2024-01-10T00:24:17;21.77;;;4.17;;
74707;SDS011;63360;50.104;8.074;2024-01-10T00:26:44;12.18;;;3.42;;
74707;SDS011;63360;50.104;8.074;2024-01-10T00:29:10;13.60;;;3.80;;
74707;SDS011;63360;50.104;8.074;2024-01-10T00:31:37;13.13;;;3.65;;
74707;SDS011;63360;50.104;8.074;2024-01-10T00:34:03;13.32;;;3.97;;
74707;SDS011;63360;50.104;8.074;2024-01-10T00:36:30;11.63;;;3.93;;
74707;SDS011;63360;50.104;8.074;2024-01-10T00:38:56;13.55;;;4.22;;
74707;SDS011;63360;50.104;8.074;2024-01-10T00:41:23;14.10;;;4.43;;
74707;SDS011;63360;50.104;8.074;2024-01-10T00:43:49;14.52;;;4.07;;
74707;SDS011;63360;50.104;8.074;2024-01-10T00:46:16;13.15;;;3.83;;
74707;SDS011;63360;50.104;8.074;2024-01-10T00:48:42;12.50;;;3.63;;
74707;SDS011;63360;50.104;8.074;2024-01-10T00:51:09;11.88;;;3.65;;
74707;SDS011;63360;50.104;8.074;2024-01-10T00:53:36;11.75;;;4.10;;
74707;SDS011;63360;50.104;8.074;2024-01-10T00:56:05;16.75;;;4.18;;
74707;SDS011;63360;50.104;8.074;2024-01-10T00:58:32;14.02;;;4.30;;
74707;SDS011;63360;50.104;8.074;2024-01-10T01:00:59;16.53;;;4.27;;
74707;SDS011;63360;50.104;8.074;2024-01-10T01:03:25;17.20;;;5.05;;
74707;SDS011;63360;50.104;8.074;2024-01-10T01:05:52;17.70;;;5.20;;
74707;SDS011;63360;50.104;8.074;2024-01-10T01:08:18;15.65;;;4.30;;
74707;SDS011;63360;50.104;8.074;2024-01-10T01:10:45;15.32;;;4.32;;
74707;SDS011;63360;50.104;8.074;2024-01-10T01:13:11;14.00;;;4.60;;
74707;SDS011;63360;50.104;8.074;2024-01-10T01:15:38;14.68;;;4.90;;
74707;SDS011;63360;50.104;8.074;2024-01-10T01:18:04;13.90;;;4.47;;
74707;SDS011;63360;50.104;8.074;2024-01-10T01:20:31;15.43;;;4.25;;
74707;SDS011;63360;50.104;8.074;2024-01-10T01:22:57;14.13;;;5.25;;
74707;SDS011;63360;50.104;8.074;2024-01-10T01:25:24;14.70;;;4.57;;
74707;SDS011;63360;50.104;8.074;2024-01-10T01:27:50;15.57;;;4.50;;
74707;SDS011;63360;50.104;8.074;2024-01-10T01:30:17;17.08;;;4.70;;
74707;SDS011;63360;50.104;8.074;2024-01-10T01:32:43;18.80;;;4.40;;
74707;SDS011;63360;50.104;8.074;2024-01-10T01:35:10;13.30;;;4.13;;
74707;SDS011;63360;50.104;8.074;2024-01-10T01:37:36;15.90;;;4.40;;
74707;SDS011;63360;50.104;8.074;2024-01-10T01:40:03;17.48;;;4.45;;
74707;SDS011;63360;50.104;8.074;2024-01-10T01:42:29;14.95;;;4.45;;
74707;SDS011;63360;50.104;8.074;2024-01-10T01:44:56;16.80;;;5.03;;
74707;SDS011;63360;50.104;8.074;2024-01-10T01:47:22;14.98;;;4.57;;
74707;SDS011;63360;50.104;8.074;2024-01-10T01:49:49;17.37;;;4.37;;
74707;SDS011;63360;50.104;8.074;2024-01-10T01:52:16;17.15;;;4.80;;
74707;SDS011;63360;50.104;8.074;2024-01-10T01:54:42;12.38;;;4.22;;
74707;SDS011;63360;50.104;8.074;2024-01-10T01:57:08;13.80;;;4.13;;
74707;SDS011;63360;50.104;8.074;2024-01-10T01:59:35;14.38;;;4.57;;
74707;SDS011;63360;50.104;8.074;2024-01-10T02:02:02;14.40;;;4.07;;
74707;SDS011;63360;50.104;8.074;2024-01-10T02:04:31;14.20;;;4.72;;
74707;SDS011;63360;50.104;8.074;2024-01-10T02:06:57;15.57;;;4.72;;
74707;SDS011;63360;50.104;8.074;2024-01-10T02:09:23;16.70;;;4.70;;
74707;SDS011;63360;50.104;8.074;2024-01-10T02:11:50;15.20;;;4.40;;
74707;SDS011;63360;50.104;8.074;2024-01-10T02:14:17;13.13;;;4.30;;
74707;SDS011;63360;50.104;8.074;2024-01-10T02:16:44;13.20;;;4.47;;
74707;SDS011;63360;50.104;8.074;2024-01-10T02:19:18;13.68;;;4.43;;
74707;SDS011;63360;50.104;8.074;2024-01-10T02:21:45;14.43;;;4.63;;
74707;SDS011;63360;50.104;8.074;2024-01-10T02:24:12;16.85;;;4.55;;
74707;SDS011;63360;50.104;8.074;2024-01-10T02:26:39;12.20;;;4.07;;
74707;SDS011;63360;50.104;8.074;2024-01-10T02:29:05;13.50;;;4.03;;
74707;SDS011;63360;50.104;8.074;2024-01-10T02:31:32;15.32;;;4.20;;
74707;SDS011;63360;50.104;8.074;2024-01-10T02:33:58;12.43;;;4.18;;
74707;SDS011;63360;50.104;8.074;2024-01-10T02:36:25;13.80;;;4.43;;
74707;SDS011;63360;50.104;8.074;2024-01-10T02:38:51;13.57;;;4.27;;
74707;SDS011;63360;50.104;8.074;2024-01-10T02:41:18;18.67;;;4.78;;
74707;SDS011;63360;50.104;8.074;2024-01-10T02:43:44;18.85;;;4.88;;
74707;SDS011;63360;50.104;8.074;2024-01-10T02:46:11;22.38;;;5.88;;
74707;SDS011;63360;50.104;8.074;2024-01-10T02:48:37;15.98;;;4.60;;
74707;SDS011;63360;50.104;8.074;2024-01-10T02:51:04;12.50;;;3.83;;
74707;SDS011;63360;50.104;8.074;2024-01-10T02:53:30;16.98;;;4.75;;
74707;SDS011;63360;50.104;8.074;2024-01-10T02:55:57;18.33;;;3.63;;
74707;SDS011;63360;50.104;8.074;2024-01-10T02:58:24;12.73;;;4.10;;
74707;SDS011;63360;50.104;8.074;2024-01-10T03:00:51;12.85;;;3.75;;
74707;SDS011;63360;50.104;8.074;2024-01-10T03:03:18;12.63;;;3.93;;
74707;SDS011;63360;50.104;8.074;2024-01-10T03:05:44;13.50;;;3.53;;
74707;SDS011;63360;50.104;8.074;2024-01-10T03:08:10;17.35;;;3.80;;
74707;SDS011;63360;50.104;8.074;2024-01-10T03:10:37;13.38;;;3.42;;
74707;SDS011;63360;50.104;8.074;2024-01-10T03:13:03;9.02;;;2.70;;
74707;SDS011;63360;50.104;8.074;2024-01-10T03:15:30;12.83;;;3.57;;
74707;SDS011;63360;50.104;8.074;2024-01-10T03:17:57;12.45;;;3.50;;
74707;SDS011;63360;50.104;8.074;2024-01-10T03:20:23;12.65;;;3.20;;
74707;SDS011;63360;50.104;8.074;2024-01-10T03:22:50;14.18;;;3.40;;
74707;SDS011;63360;50.104;8.074;2024-01-10T03:25:16;14.30;;;3.45;;
74707;SDS011;63360;50.104;8.074;2024-01-10T03:27:45;12.43;;;2.83;;
74707;SDS011;63360;50.104;8.074;2024-01-10T03:30:12;11.45;;;3.35;;
74707;SDS011;63360;50.104;8.074;2024-01-10T03:32:38;9.52;;;2.85;;
74707;SDS011;63360;50.104;8.074;2024-01-10T03:35:06;9.65;;;2.85;;
74707;SDS011;63360;50.104;8.074;2024-01-10T03:37:33;12.52;;;3.05;;
74707;SDS011;63360;50.104;8.074;2024-01-10T03:40:00;13.57;;;3.23;;
74707;SDS011;63360;50.104;8.074;2024-01-10T03:42:26;10.40;;;3.30;;
74707;SDS011;63360;50.104;8.074;2024-01-10T03:44:52;11.35;;;3.00;;
74707;SDS011;63360;50.104;8.074;2024-01-10T03:47:19;10.90;;;3.13;;
74707;SDS011;63360;50.104;8.074;2024-01-10T03:49:45;11.90;;;3.20;;
74707;SDS011;63360;50.104;8.074;2024-01-10T03:52:12;9.23;;;2.70;;
74707;SDS011;63360;50.104;8.074;2024-01-10T03:54:38;12.02;;;2.35;;
74707;SDS011;63360;50.104;8.074;2024-01-10T03:57:06;11.90;;;3.15;;
74707;SDS011;63360;50.104;8.074;2024-01-10T03:59:33;11.45;;;2.72;;
74707;SDS011;63360;50.104;8.074;2024-01-10T04:01:59;11.68;;;3.08;;
74707;SDS011;63360;50.104;8.074;2024-01-10T04:04:27;14.33;;;3.10;;
74707;SDS011;63360;50.104;8.074;2024-01-10T04:06:53;9.77;;;2.85;;
74707;SDS011;63360;50.104;8.074;2024-01-10T04:09:19;10.27;;;2.95;;
74707;SDS011;63360;50.104;8.074;2024-01-10T04:11:46;10.93;;;2.65;;
74707;SDS011;63360;50.104;8.074;2024-01-10T04:14:12;11.15;;;3.17;;
74707;SDS011;63360;50.104;8.074;2024-01-10T04:16:39;11.23;;;3.03;;
74707;SDS011;63360;50.104;8.074;2024-01-10T04:19:05;10.02;;;3.10;;
74707;SDS011;63360;50.104;8.074;2024-01-10T04:21:32;8.63;;;2.67;;
74707;SDS011;63360;50.104;8.074;2024-01-10T04:23:58;10.82;;;3.03;;
74707;SDS011;63360;50.104;8.074;2024-01-10T04:26:25;9.77;;;3.00;;
74707;SDS011;63360;50.104;8.074;2024-01-10T04:28:51;10.80;;;3.10;;
74707;SDS011;63360;50.104;8.074;2024-01-10T04:31:17;10.90;;;2.90;;
74707;SDS011;63360;50.104;8.074;2024-01-10T04:33:44;9.65;;;3.10;;
74707;SDS011;63360;50.104;8.074;2024-01-10T04:36:10;9.98;;;2.80;;
74707;SDS011;63360;50.104;8.074;2024-01-10T04:38:37;9.55;;;2.88;;
74707;SDS011;63360;50.104;8.074;2024-01-10T04:41:03;9.10;;;2.90;;
74707;SDS011;63360;50.104;8.074;2024-01-10T04:43:30;10.45;;;3.33;;
74707;SDS011;63360;50.104;8.074;2024-01-10T04:45:56;10.77;;;3.15;;
74707;SDS011;63360;50.104;8.074;2024-01-10T04:48:23;10.35;;;3.00;;
74707;SDS011;63360;50.104;8.074;2024-01-10T04:50:49;12.02;;;2.90;;
74707;SDS011;63360;50.104;8.074;2024-01-10T04:53:15;10.50;;;2.73;;
74707;SDS011;63360;50.104;8.074;2024-01-10T04:55:42;8.63;;;2.78;;
74707;SDS011;63360;50.104;8.074;2024-01-10T04:58:09;11.48;;;3.08;;
74707;SDS011;63360;50.104;8.074;2024-01-10T05:00:35;10.18;;;3.30;;
74707;SDS011;63360;50.104;8.074;2024-01-10T05:03:02;10.05;;;3.13;;
74707;SDS011;63360;50.104;8.074;2024-01-10T05:05:28;9.53;;;3.17;;
74707;SDS011;63360;50.104;8.074;2024-01-10T05:07:55;11.88;;;3.38;;
74707;SDS011;63360;50.104;8.074;2024-01-10T05:10:21;12.32;;;3.72;;
74707;SDS011;63360;50.104;8.074;2024-01-10T05:12:48;10.77;;;3.20;;
74707;SDS011;63360;50.104;8.074;2024-01-10T05:15:14;13.20;;;3.45;;
74707;SDS011;63360;50.104;8.074;2024-01-10T05:17:40;11.13;;;3.60;;
74707;SDS011;63360;50.104;8.074;2024-01-10T05:20:07;10.57;;;3.45;;
74707;SDS011;63360;50.104;8.074;2024-01-10T05:22:34;13.65;;;3.42;;
74707;SDS011;63360;50.104;8.074;2024-01-10T05:25:01;13.13;;;3.72;;
74707;SDS011;63360;50.104;8.074;2024-01-10T05:27:28;10.73;;;3.83;;
74707;SDS011;63360;50.104;8.074;2024-01-10T05:29:55;12.17;;;3.80;;
74707;SDS011;63360;50.104;8.074;2024-01-10T05:32:21;11.90;;;4.05;;
74707;SDS011;63360;50.104;8.074;2024-01-10T05:34:48;13.05;;;3.60;;
74707;SDS011;63360;50.104;8.074;2024-01-10T05:37:15;10.63;;;3.50;;
74707;SDS011;63360;50.104;8.074;2024-01-10T05:39:42;13.65;;;3.75;;
74707;SDS011;63360;50.104;8.074;2024-01-10T05:42:08;13.83;;;3.90;;
74707;SDS011;63360;50.104;8.074;2024-01-10T05:44:34;12.25;;;3.85;;
74707;SDS011;63360;50.104;8.074;2024-01-10T05:47:01;13.35;;;3.85;;
74707;SDS011;63360;50.104;8.074;2024-01-10T05:49:29;12.43;;;3.92;;
74707;SDS011;63360;50.104;8.074;2024-01-10T05:51:55;13.35;;;3.72;;
74707;SDS011;63360;50.104;8.074;2024-01-10T05:54:21;11.80;;;3.30;;
74707;SDS011;63360;50.104;8.074;2024-01-10T05:56:48;11.70;;;3.58;;
74707;SDS011;63360;50.104;8.074;2024-01-10T05:59:14;12.48;;;4.28;;
74707;SDS011;63360;50.104;8.074;2024-01-10T06:01:42;12.55;;;3.92;;
74707;SDS011;63360;50.104;8.074;2024-01-10T06:04:09;14.50;;;3.88;;
74707;SDS011;63360;50.104;8.074;2024-01-10T06:06:35;10.73;;;3.50;;
74707;SDS011;63360;50.104;8.074;2024-01-10T06:09:02;11.80;;;3.15;;
74707;SDS011;63360;50.104;8.074;2024-01-10T06:11:28;11.98;;;3.88;;
74707;SDS011;63360;50.104;8.074;2024-01-10T06:13:55;12.02;;;3.75;;
74707;SDS011;63360;50.104;8.074;2024-01-10T06:16:23;13.55;;;3.28;;
74707;SDS011;63360;50.104;8.074;2024-01-10T06:18:50;12.73;;;3.60;;
74707;SDS011;63360;50.104;8.074;2024-01-10T06:21:17;12.80;;;3.42;;
74707;SDS011;63360;50.104;8.074;2024-01-10T06:23:43;11.77;;;3.28;;
74707;SDS011;63360;50.104;8.074;2024-01-10T06:26:09;12.25;;;3.33;;
74707;SDS011;63360;50.104;8.074;2024-01-10T06:28:37;10.05;;;3.15;;
74707;SDS011;63360;50.104;8.074;2024-01-10T06:31:03;11.23;;;3.60;;
74707;SDS011;63360;50.104;8.074;2024-01-10T06:33:32;9.20;;;2.63;;
74707;SDS011;63360;50.104;8.074;2024-01-10T06:36:00;15.43;;;4.32;;
74707;SDS011;63360;50.104;8.074;2024-01-10T06:38:26;11.68;;;3.33;;
74707;SDS011;63360;50.104;8.074;2024-01-10T06:40:53;12.95;;;3.67;;
74707;SDS011;63360;50.104;8.074;2024-01-10T06:43:19;10.97;;;3.37;;
74707;SDS011;63360;50.104;8.074;2024-01-10T06:45:45;12.98;;;3.60;;
74707;SDS011;63360;50.104;8.074;2024-01-10T06:48:12;11.82;;;3.50;;
74707;SDS011;63360;50.104;8.074;2024-01-10T06:50:39;11.13;;;3.17;;
74707;SDS011;63360;50.104;8.074;2024-01-10T06:53:05;12.88;;;4.50;;
74707;SDS011;63360;50.104;8.074;2024-01-10T06:55:32;10.90;;;3.90;;
74707;SDS011;63360;50.104;8.074;2024-01-10T06:57:59;16.45;;;4.30;;
74707;SDS011;63360;50.104;8.074;2024-01-10T07:00:25;12.20;;;3.88;;
74707;SDS011;63360;50.104;8.074;2024-01-10T07:02:52;11.93;;;4.03;;
74707;SDS011;63360;50.104;8.074;2024-01-10T07:05:19;12.60;;;3.88;;
74707;SDS011;63360;50.104;8.074;2024-01-10T07:07:46;14.23;;;4.47;;
74707;SDS011;63360;50.104;8.074;2024-01-10T07:10:12;12.30;;;3.92;;
74707;SDS011;63360;50.104;8.074;2024-01-10T07:12:39;14.30;;;4.00;;
74707;SDS011;63360;50.104;8.074;2024-01-10T07:15:05;13.65;;;4.13;;
74707;SDS011;63360;50.104;8.074;2024-01-10T07:17:32;13.30;;;4.13;;
74707;SDS011;63360;50.104;8.074;2024-01-10T07:19:59;13.90;;;4.23;;
74707;SDS011;63360;50.104;8.074;2024-01-10T07:22:26;15.77;;;4.00;;
74707;SDS011;63360;50.104;8.074;2024-01-10T07:24:52;10.95;;;3.70;;
74707;SDS011;63360;50.104;8.074;2024-01-10T07:27:19;13.75;;;3.92;;
74707;SDS011;63360;50.104;8.074;2024-01-10T07:29:45;10.88;;;3.47;;
74707;SDS011;63360;50.104;8.074;2024-01-10T07:32:12;11.47;;;3.47;;
74707;SDS011;63360;50.104;8.074;2024-01-10T07:34:39;12.68;;;4.00;;
74707;SDS011;63360;50.104;8.074;2024-01-10T07:37:06;14.43;;;4.30;;
74707;SDS011;63360;50.104;8.074;2024-01-10T07:39:34;15.18;;;4.43;;
74707;SDS011;63360;50.104;8.074;2024-01-10T07:42:01;16.75;;;4.43;;
74707;SDS011;63360;50.104;8.074;2024-01-10T07:44:28;14.53;;;4.10;;
74707;SDS011;63360;50.104;8.074;2024-01-10T07:46:55;13.20;;;3.65;;
74707;SDS011;63360;50.104;8.074;2024-01-10T07:49:21;13.75;;;4.43;;
74707;SDS011;63360;50.104;8.074;2024-01-10T07:51:50;13.05;;;4.15;;
74707;SDS011;63360;50.104;8.074;2024-01-10T07:54:16;13.48;;;3.95;;
74707;SDS011;63360;50.104;8.074;2024-01-10T07:56:43;13.97;;;4.23;;
74707;SDS011;63360;50.104;8.074;2024-01-10T07:59:09;13.35;;;3.90;;
74707;SDS011;63360;50.104;8.074;2024-01-10T08:01:35;9.55;;;3.17;;
74707;SDS011;63360;50.104;8.074;2024-01-10T08:04:02;12.63;;;3.80;;
74707;SDS011;63360;50.104;8.074;2024-01-10T08:06:28;13.63;;;3.90;;
74707;SDS011;63360;50.104;8.074;2024-01-10T08:08:59;14.13;;;4.00;;
74707;SDS011;63360;50.104;8.074;2024-01-10T08:11:25;13.70;;;3.58;;
74707;SDS011;63360;50.104;8.074;2024-01-10T08:13:52;15.40;;;3.88;;
74707;SDS011;63360;50.104;8.074;2024-01-10T08:16:18;11.43;;;3.40;;
74707;SDS011;63360;50.104;8.074;2024-01-10T08:18:44;12.23;;;3.88;;
74707;SDS011;63360;50.104;8.074;2024-01-10T08:21:11;11.13;;;3.10;;
74707;SDS011;63360;50.104;8.074;2024-01-10T08:23:38;11.95;;;3.65;;
74707;SDS011;63360;50.104;8.074;2024-01-10T08:26:06;12.35;;;3.53;;
74707;SDS011;63360;50.104;8.074;2024-01-10T08:28:34;13.15;;;3.90;;
74707;SDS011;63360;50.104;8.074;2024-01-10T08:31:00;12.65;;;2.88;;
74707;SDS011;63360;50.104;8.074;2024-01-10T08:33:30;11.37;;;3.77;;
74707;SDS011;63360;50.104;8.074;2024-01-10T08:35:57;8.63;;;2.97;;
74707;SDS011;63360;50.104;8.074;2024-01-10T08:38:24;11.68;;;3.95;;
74707;SDS011;63360;50.104;8.074;2024-01-10T08:40:51;10.95;;;3.47;;
74707;SDS011;63360;50.104;8.074;2024-01-10T08:43:18;13.10;;;3.63;;
74707;SDS011;63360;50.104;8.074;2024-01-10T08:45:44;10.73;;;3.90;;
74707;SDS011;63360;50.104;8.074;2024-01-10T08:48:10;11.82;;;3.45;;
74707;SDS011;63360;50.104;8.074;2024-01-10T08:50:39;11.60;;;3.30;;
74707;SDS011;63360;50.104;8.074;2024-01-10T08:53:05;11.93;;;3.55;;
74707;SDS011;63360;50.104;8.074;2024-01-10T08:55:32;14.95;;;4.00;;
74707;SDS011;63360;50.104;8.074;2024-01-10T08:58:00;13.90;;;3.80;;
74707;SDS011;63360;50.104;8.074;2024-01-10T09:00:26;13.13;;;4.07;;
74707;SDS011;63360;50.104;8.074;2024-01-10T09:02:53;13.65;;;3.50;;
74707;SDS011;63360;50.104;8.074;2024-01-10T09:05:20;12.38;;;3.25;;
74707;SDS011;63360;50.104;8.074;2024-01-10T09:07:48;11.10;;;3.42;;
74707;SDS011;63360;50.104;8.074;2024-01-10T09:10:15;14.30;;;3.87;;
74707;SDS011;63360;50.104;8.074;2024-01-10T09:12:42;13.60;;;4.15;;
74707;SDS011;63360;50.104;8.074;2024-01-10T09:15:12;18.55;;;4.53;;
74707;SDS011;63360;50.104;8.074;2024-01-10T09:17:43;13.60;;;4.10;;
74707;SDS011;63360;50.104;8.074;2024-01-10T09:20:10;11.82;;;3.30;;
74707;SDS011;63360;50.104;8.074;2024-01-10T09:22:38;14.43;;;4.70;;
74707;SDS011;63360;50.104;8.074;2024-01-10T09:25:05;12.70;;;3.80;;
74707;SDS011;63360;50.104;8.074;2024-01-10T09:27:32;11.18;;;3.50;;
74707;SDS011;63360;50.104;8.074;2024-01-10T09:30:02;17.63;;;4.20;;
74707;SDS011;63360;50.104;8.074;2024-01-10T09:32:29;12.75;;;3.40;;
74707;SDS011;63360;50.104;8.074;2024-01-10T09:34:56;14.77;;;4.03;;
74707;SDS011;63360;50.104;8.074;2024-01-10T09:37:22;11.52;;;3.75;;
74707;SDS011;63360;50.104;8.074;2024-01-10T09:39:49;11.57;;;4.00;;
74707;SDS011;63360;50.104;8.074;2024-01-10T09:42:16;13.00;;;4.47;;
74707;SDS011;63360;50.104;8.074;2024-01-10T09:44:42;11.68;;;3.60;;
74707;SDS011;63360;50.104;8.074;2024-01-10T09:47:09;13.53;;;4.07;;
74707;SDS011;63360;50.104;8.074;2024-01-10T09:49:35;12.15;;;4.38;;
74707;SDS011;63360;50.104;8.074;2024-01-10T09:52:03;12.43;;;3.92;;
74707;SDS011;63360;50.104;8.074;2024-01-10T09:54:31;13.52;;;4.30;;
74707;SDS011;63360;50.104;8.074;2024-01-10T09:56:57;13.10;;;4.35;;
74707;SDS011;63360;50.104;8.074;2024-01-10T09:59:24;14.43;;;4.60;;
74707;SDS011;63360;50.104;8.074;2024-01-10T10:01:54;13.52;;;4.30;;
74707;SDS011;63360;50.104;8.074;2024-01-10T10:04:23;14.75;;;4.88;;
74707;SDS011;63360;50.104;8.074;2024-01-10T10:07:00;10.48;;;3.28;;
74707;SDS011;63360;50.104;8.074;2024-01-10T10:09:28;15.75;;;4.38;;
74707;SDS011;63360;50.104;8.074;2024-01-10T10:11:56;12.87;;;4.00;;
74707;SDS011;63360;50.104;8.074;2024-01-10T10:14:23;15.15;;;4.50;;
74707;SDS011;63360;50.104;8.074;2024-01-10T10:16:52;12.45;;;4.20;;
74707;SDS011;63360;50.104;8.074;2024-01-10T10:19:22;11.93;;;3.85;;
74707;SDS011;63360;50.104;8.074;2024-01-10T10:22:08;14.43;;;4.28;;
74707;SDS011;63360;50.104;8.074;2024-01-10T10:24:35;15.70;;;4.50;;
74707;SDS011;63360;50.104;8.074;2024-01-10T10:27:07;13.40;;;4.28;;
74707;SDS011;63360;50.104;8.074;2024-01-10T10:29:35;12.70;;;4.30;;
74707;SDS011;63360;50.104;8.074;2024-01-10T10:32:03;16.60;;;4.60;;
74707;SDS011;63360;50.104;8.074;2024-01-10T10:34:31;15.25;;;4.57;;
74707;SDS011;63360;50.104;8.074;2024-01-10T10:37:00;15.30;;;3.63;;
74707;SDS011;63360;50.104;8.074;2024-01-10T10:39:27;14.50;;;4.35;;
74707;SDS011;63360;50.104;8.074;2024-01-10T10:41:53;15.45;;;4.53;;
74707;SDS011;63360;50.104;8.074;2024-01-10T10:44:22;15.23;;;4.60;;
74707;SDS011;63360;50.104;8.074;2024-01-10T10:46:52;16.48;;;4.63;;
74707;SDS011;63360;50.104;8.074;2024-01-10T10:49:37;16.60;;;5.13;;
74707;SDS011;63360;50.104;8.074;2024-01-10T10:52:14;14.65;;;4.55;;
74707;SDS011;63360;50.104;8.074;2024-01-10T10:54:42;13.25;;;4.65;;
74707;SDS011;63360;50.104;8.074;2024-01-10T10:57:11;14.18;;;3.83;;
74707;SDS011;63360;50.104;8.074;2024-01-10T10:59:38;15.55;;;4.78;;
74707;SDS011;63360;50.104;8.074;2024-01-10T11:02:08;13.80;;;3.97;;
74707;SDS011;63360;50.104;8.074;2024-01-10T11:04:37;14.75;;;4.78;;
74707;SDS011;63360;50.104;8.074;2024-01-10T11:07:06;13.48;;;4.10;;
74707;SDS011;63360;50.104;8.074;2024-01-10T11:09:34;13.25;;;3.80;;
74707;SDS011;63360;50.104;8.074;2024-01-10T11:25:42;15.32;;;4.43;;
74707;SDS011;63360;50.104;8.074;2024-01-10T11:28:10;16.00;;;5.07;;
74707;SDS011;63360;50.104;8.074;2024-01-10T11:30:48;17.52;;;5.63;;
74707;SDS011;63360;50.104;8.074;2024-01-10T11:33:24;14.95;;;4.95;;
74707;SDS011;63360;50.104;8.074;2024-01-10T11:38:41;12.98;;;4.53;;
74707;SDS011;63360;50.104;8.074;2024-01-10T11:41:09;16.57;;;4.63;;
74707;SDS011;63360;50.104;8.074;2024-01-10T11:43:38;12.73;;;4.07;;
74707;SDS011;63360;50.104;8.074;2024-01-10T11:46:05;14.60;;;4.72;;
74707;SDS011;63360;50.104;8.074;2024-01-10T11:48:32;16.20;;;4.63;;
74707;SDS011;63360;50.104;8.074;2024-01-10T11:50:59;16.08;;;5.07;;
74707;SDS011;63360;50.104;8.074;2024-01-10T11:53:39;15.97;;;4.90;;
74707;SDS011;63360;50.104;8.074;2024-01-10T11:56:12;15.90;;;4.85;;
74707;SDS011;63360;50.104;8.074;2024-01-10T11:58:51;14.20;;;5.15;;
74707;SDS011;63360;50.104;8.074;2024-01-10T12:01:21;15.18;;;4.80;;
74707;SDS011;63360;50.104;8.074;2024-01-10T12:03:51;16.60;;;4.80;;
74707;SDS011;63360;50.104;8.074;2024-01-10T12:06:39;15.63;;;5.53;;
74707;SDS011;63360;50.104;8.074;2024-01-10T12:09:05;16.55;;;5.47;;
74707;SDS011;63360;50.104;8.074;2024-01-10T12:11:35;15.20;;;5.38;;
74707;SDS011;63360;50.104;8.074;2024-01-10T12:14:02;17.67;;;5.60;;
74707;SDS011;63360;50.104;8.074;2024-01-10T12:16:28;16.77;;;4.80;;
74707;SDS011;63360;50.104;8.074;2024-01-10T12:18:55;15.20;;;4.93;;
74707;SDS011;63360;50.104;8.074;2024-01-10T12:21:21;19.17;;;5.50;;
74707;SDS011;63360;50.104;8.074;2024-01-10T12:23:48;15.63;;;5.60;;
74707;SDS011;63360;50.104;8.074;2024-01-10T12:26:15;14.30;;;5.40;;
74707;SDS011;63360;50.104;8.074;2024-01-10T12:28:42;16.92;;;5.25;;
74707;SDS011;63360;50.104;8.074;2024-01-10T12:31:23;13.47;;;5.03;;
74707;SDS011;63360;50.104;8.074;2024-01-10T12:33:54;15.50;;;5.45;;
74707;SDS011;63360;50.104;8.074;2024-01-10T12:36:21;15.75;;;5.07;;
74707;SDS011;63360;50.104;8.074;2024-01-10T12:38:47;15.10;;;4.97;;
74707;SDS011;63360;50.104;8.074;2024-01-10T12:41:15;16.00;;;5.18;;
74707;SDS011;63360;50.104;8.074;2024-01-10T12:43:42;15.67;;;4.87;;
74707;SDS011;63360;50.104;8.074;2024-01-10T12:46:12;15.93;;;5.50;;
74707;SDS011;63360;50.104;8.074;2024-01-10T12:48:39;15.02;;;5.18;;
74707;SDS011;63360;50.104;8.074;2024-01-10T12:51:10;16.85;;;5.30;;
74707;SDS011;63360;50.104;8.074;2024-01-10T12:53:38;16.33;;;5.40;;
74707;SDS011;63360;50.104;8.074;2024-01-10T12:56:06;16.67;;;5.70;;
74707;SDS011;63360;50.104;8.074;2024-01-10T12:58:34;13.45;;;4.75;;
74707;SDS011;63360;50.104;8.074;2024-01-10T13:01:02;13.95;;;5.10;;
74707;SDS011;63360;50.104;8.074;2024-01-10T13:03:32;15.38;;;5.10;;
74707;SDS011;63360;50.104;8.074;2024-01-10T13:05:59;20.80;;;6.82;;
74707;SDS011;63360;50.104;8.074;2024-01-10T13:08:26;16.97;;;5.03;;
74707;SDS011;63360;50.104;8.074;2024-01-10T13:10:53;14.57;;;5.05;;
74707;SDS011;63360;50.104;8.074;2024-01-10T13:13:20;15.40;;;5.00;;
74707;SDS011;63360;50.104;8.074;2024-01-10T13:15:48;16.85;;;5.50;;
74707;SDS011;63360;50.104;8.074;2024-01-10T13:18:15;16.45;;;5.22;;
74707;SDS011;63360;50.104;8.074;2024-01-10T13:20:42;17.60;;;5.50;;
74707;SDS011;63360;50.104;8.074;2024-01-10T13:23:09;20.10;;;6.00;;
74707;SDS011;63360;50.104;8.074;2024-01-10T13:25:36;16.92;;;4.97;;
74707;SDS011;63360;50.104;8.074;2024-01-10T13:28:04;15.05;;;4.90;;
74707;SDS011;63360;50.104;8.074;2024-01-10T13:30:30;14.43;;;4.90;;
74707;SDS011;63360;50.104;8.074;2024-01-10T13:32:57;14.67;;;5.27;;
74707;SDS011;63360;50.104;8.074;2024-01-10T13:35:24;15.68;;;4.78;;
74707;SDS011;63360;50.104;8.074;2024-01-10T13:37:50;13.13;;;4.47;;
74707;SDS011;63360;50.104;8.074;2024-01-10T13:40:17;14.07;;;4.80;;
74707;SDS011;63360;50.104;8.074;2024-01-10T13:42:46;16.23;;;5.03;;
74707;SDS011;63360;50.104;8.074;2024-01-10T13:45:12;15.47;;;4.93;;
74707;SDS011;63360;50.104;8.074;2024-01-10T13:47:39;17.88;;;5.20;;
74707;SDS011;63360;50.104;8.074;2024-01-10T13:50:07;17.33;;;5.60;;
74707;SDS011;63360;50.104;8.074;2024-01-10T13:52:35;18.85;;;4.95;;
74707;SDS011;63360;50.104;8.074;2024-01-10T13:55:02;18.75;;;5.50;;
74707;SDS011;63360;50.104;8.074;2024-01-10T13:57:32;14.90;;;5.13;;
74707;SDS011;63360;50.104;8.074;2024-01-10T13:59:59;16.85;;;5.22;;
74707;SDS011;63360;50.104;8.074;2024-01-10T14:02:26;13.15;;;3.97;;
74707;SDS011;63360;50.104;8.074;2024-01-10T14:04:53;16.80;;;5.20;;
74707;SDS011;63360;50.104;8.074;2024-01-10T14:07:27;16.40;;;4.95;;
74707;SDS011;63360;50.104;8.074;2024-01-10T14:09:53;14.90;;;4.07;;
74707;SDS011;63360;50.104;8.074;2024-01-10T14:12:22;16.00;;;5.60;;
74707;SDS011;63360;50.104;8.074;2024-01-10T14:14:49;16.88;;;5.45;;
74707;SDS011;63360;50.104;8.074;2024-01-10T14:17:15;21.77;;;6.95;;
74707;SDS011;63360;50.104;8.074;2024-01-10T14:19:41;15.88;;;5.22;;
74707;SDS011;63360;50.104;8.074;2024-01-10T14:22:10;15.27;;;4.80;;
74707;SDS011;63360;50.104;8.074;2024-01-10T14:24:53;17.35;;;5.45;;
74707;SDS011;63360;50.104;8.074;2024-01-10T14:27:20;12.57;;;4.38;;
74707;SDS011;63360;50.104;8.074;2024-01-10T14:29:47;13.88;;;5.28;;
74707;SDS011;63360;50.104;8.074;2024-01-10T14:32:14;18.15;;;5.38;;
74707;SDS011;63360;50.104;8.074;2024-01-10T14:34:44;23.00;;;7.40;;
74707;SDS011;63360;50.104;8.074;2024-01-10T14:37:13;14.80;;;5.70;;
74707;SDS011;63360;50.104;8.074;2024-01-10T14:39:39;19.10;;;5.88;;
74707;SDS011;63360;50.104;8.074;2024-01-10T14:42:06;13.93;;;5.03;;
74707;SDS011;63360;50.104;8.074;2024-01-10T14:44:36;13.88;;;5.32;;
74707;SDS011;63360;50.104;8.074;2024-01-10T14:47:02;16.90;;;5.43;;
74707;SDS011;63360;50.104;8.074;2024-01-10T14:49:37;14.68;;;5.10;;
74707;SDS011;63360;50.104;8.074;2024-01-10T14:52:03;14.25;;;5.03;;
74707;SDS011;63360;50.104;8.074;2024-01-10T14:54:30;13.32;;;4.68;;